createdAt,value
2017-11-25T00:00:50.613Z,11.67
2017-11-25T00:03:18.921Z,11.80
2017-11-25T00:05:47.214Z,15.63
2017-11-25T00:08:15.501Z,9.50
2017-11-25T00:10:43.817Z,22.63
2017-11-25T00:13:12.099Z,11.63
2017-11-25T00:15:40.396Z,9.47
2017-11-25T00:18:08.680Z,14.80
2017-11-25T00:20:36.996Z,11.43
2017-11-25T00:23:05.340Z,9.00
2017-11-25T00:25:33.625Z,11.47
2017-11-25T00:28:01.964Z,17.67
2017-11-25T00:30:30.266Z,10.60
2017-11-25T00:32:58.571Z,14.00
2017-11-25T00:35:27.649Z,13.90
2017-11-25T00:37:55.954Z,15.80
2017-11-25T00:40:24.247Z,19.30
2017-11-25T00:42:52.565Z,14.23
2017-11-25T00:45:20.856Z,13.90
2017-11-25T00:47:49.175Z,13.60
2017-11-25T00:50:17.469Z,15.80
2017-11-25T00:52:45.757Z,13.63
2017-11-25T00:55:14.052Z,18.23
2017-11-25T00:57:42.339Z,15.10
2017-11-25T01:00:10.666Z,18.17
2017-11-25T01:02:39.724Z,11.40
2017-11-25T01:05:08.041Z,23.50
2017-11-25T01:07:36.348Z,21.37
2017-11-25T01:10:05.426Z,28.73
2017-11-25T01:12:33.776Z,21.13
2017-11-25T01:15:02.061Z,26.87
2017-11-25T01:17:30.364Z,25.17
2017-11-25T01:19:58.659Z,27.67
2017-11-25T01:22:26.971Z,25.30
2017-11-25T01:24:55.295Z,22.70
2017-11-25T01:27:24.369Z,23.37
2017-11-25T01:29:52.667Z,21.40
2017-11-25T01:32:20.960Z,21.37
2017-11-25T01:34:50.028Z,26.90
2017-11-25T01:37:18.347Z,29.10
2017-11-25T01:39:46.656Z,27.60
2017-11-25T01:42:15.712Z,29.07
2017-11-25T01:44:44.017Z,31.70
2017-11-25T01:47:12.309Z,27.50
2017-11-25T01:49:40.745Z,27.07
2017-11-25T01:52:09.822Z,32.13
2017-11-25T01:54:38.136Z,28.03
2017-11-25T01:57:07.255Z,30.83
2017-11-25T01:59:35.566Z,33.13
2017-11-25T02:02:03.889Z,29.20
2017-11-25T02:04:32.200Z,24.70
2017-11-25T02:07:01.276Z,31.77
2017-11-25T02:09:29.568Z,32.83
2017-11-25T02:11:57.860Z,29.27
2017-11-25T02:14:26.211Z,33.30
2017-11-25T02:16:54.506Z,30.07
2017-11-25T02:19:22.838Z,22.20
2017-11-25T02:21:51.213Z,24.90
2017-11-25T02:24:19.553Z,22.40
2017-11-25T02:26:47.919Z,25.00
2017-11-25T02:29:17.020Z,24.40
2017-11-25T02:31:45.362Z,30.57
2017-11-25T02:34:13.745Z,31.17
2017-11-25T02:36:42.863Z,23.93
2017-11-25T02:39:11.148Z,25.47
2017-11-25T02:41:39.455Z,22.90
2017-11-25T02:44:07.757Z,24.60
2017-11-25T02:46:36.076Z,25.97
2017-11-25T02:49:04.403Z,23.10
2017-11-25T02:51:32.721Z,29.37
2017-11-25T02:54:01.023Z,20.33
2017-11-25T02:56:29.319Z,24.43
2017-11-25T02:58:57.616Z,99.30
2017-11-25T03:01:25.927Z,21.93
2017-11-25T03:03:55.020Z,27.47
2017-11-25T03:06:24.080Z,31.27
2017-11-25T03:08:52.367Z,27.83
2017-11-25T03:11:20.670Z,35.70
2017-11-25T03:13:48.968Z,58.67
2017-11-25T03:16:17.294Z,47.07
2017-11-25T03:18:46.341Z,40.60
2017-11-25T03:21:14.636Z,44.70
2017-11-25T03:23:42.919Z,46.27
2017-11-25T03:26:11.236Z,53.70
2017-11-25T03:28:39.675Z,40.50
2017-11-25T03:31:07.991Z,45.83
2017-11-25T03:33:36.292Z,37.47
2017-11-25T03:36:04.604Z,32.80
2017-11-25T03:38:33.680Z,36.70
2017-11-25T03:41:02.020Z,47.37
2017-11-25T03:43:31.085Z,44.70
2017-11-25T03:45:59.380Z,43.43
2017-11-25T03:48:27.729Z,36.87
2017-11-25T03:50:56.022Z,57.43
2017-11-25T03:53:24.356Z,65.03
2017-11-25T03:55:52.647Z,66.83
2017-11-25T03:58:20.948Z,52.53
2017-11-25T04:00:49.370Z,52.27
2017-11-25T04:03:17.660Z,51.20
2017-11-25T04:05:46.728Z,61.13
2017-11-25T04:10:35.824Z,52.40
2017-11-25T04:13:04.245Z,56.03
2017-11-25T04:15:33.300Z,58.50
2017-11-25T04:18:01.601Z,90.43
2017-11-25T04:20:29.897Z,42.07
2017-11-25T04:22:58.214Z,53.53
2017-11-25T04:25:27.292Z,50.50
2017-11-25T04:27:55.609Z,58.00
2017-11-25T04:30:24.675Z,12.87
2017-11-25T04:32:53.738Z,5.27
2017-11-25T04:35:22.801Z,20.20
2017-11-25T04:37:51.884Z,3.13
2017-11-25T04:40:20.172Z,3.27
2017-11-25T04:42:48.438Z,4.30
2017-11-25T04:45:16.716Z,3.83
2017-11-25T04:47:45.776Z,5.50
2017-11-25T04:50:14.196Z,8.40
2017-11-25T04:52:42.476Z,5.90
2017-11-25T04:55:10.764Z,5.07
2017-11-25T04:57:39.055Z,7.00
2017-11-25T05:00:08.105Z,6.70
2017-11-25T05:02:36.466Z,7.93
2017-11-25T05:05:05.566Z,5.67
2017-11-25T05:07:34.637Z,4.70
2017-11-25T05:10:02.944Z,4.37
2017-11-25T05:12:31.272Z,4.13
2017-11-25T05:15:00.333Z,3.27
2017-11-25T05:17:28.607Z,3.23
2017-11-25T05:19:56.892Z,3.20
2017-11-25T05:22:25.185Z,4.00
2017-11-25T05:24:53.504Z,5.13
2017-11-25T05:27:21.784Z,4.80
2017-11-25T05:29:50.072Z,6.60
2017-11-25T05:32:18.352Z,7.07
2017-11-25T05:34:46.637Z,11.70
2017-11-25T05:37:14.959Z,7.20
2017-11-25T05:39:44.028Z,9.17
2017-11-25T05:42:12.322Z,10.03
2017-11-25T05:44:40.628Z,16.17
2017-11-25T05:47:08.921Z,11.00
2017-11-25T05:49:37.249Z,9.87
2017-11-25T05:52:05.578Z,12.57
2017-11-25T05:54:33.885Z,10.83
2017-11-25T05:57:02.165Z,12.43
2017-11-25T05:59:30.453Z,12.27
2017-11-25T06:01:58.740Z,11.57
2017-11-25T06:04:27.037Z,10.50
2017-11-25T06:06:55.357Z,10.43
2017-11-25T06:09:24.421Z,9.10
2017-11-25T06:11:52.700Z,7.97
2017-11-25T06:14:20.984Z,9.33
2017-11-25T06:16:49.259Z,3.53
2017-11-25T06:19:17.585Z,8.30
2017-11-25T06:21:45.872Z,8.23
2017-11-25T06:24:14.174Z,9.57
2017-11-25T06:26:42.452Z,7.57
2017-11-25T06:29:11.354Z,10.97
2017-11-25T06:31:39.668Z,11.33
2017-11-25T06:34:08.196Z,9.60
2017-11-25T06:36:36.535Z,9.93
2017-11-25T06:39:04.836Z,9.10
2017-11-25T06:41:33.124Z,11.10
2017-11-25T06:44:01.457Z,11.47
2017-11-25T06:46:29.738Z,11.40
2017-11-25T06:48:58.042Z,17.10
2017-11-25T06:51:26.324Z,14.07
2017-11-25T06:53:54.617Z,12.00
2017-11-25T06:56:22.901Z,15.57
2017-11-25T06:58:51.192Z,16.20
2017-11-25T07:01:19.476Z,14.00
2017-11-25T07:03:47.766Z,13.20
2017-11-25T07:06:16.081Z,10.53
2017-11-25T07:08:44.371Z,14.20
2017-11-25T07:11:12.696Z,18.07
2017-11-25T07:13:41.770Z,9.93
2017-11-25T07:16:10.061Z,5.70
2017-11-25T07:18:38.356Z,4.10
2017-11-25T07:21:06.668Z,3.60
2017-11-25T07:23:35.748Z,4.77
2017-11-25T07:26:04.056Z,5.27
2017-11-25T07:28:32.346Z,36.67
2017-11-25T07:31:00.644Z,27.93
2017-11-25T07:33:29.839Z,62.20
2017-11-25T07:35:58.137Z,50.20
2017-11-25T07:38:26.428Z,50.50
2017-11-25T07:40:55.507Z,32.37
2017-11-25T07:43:23.795Z,36.53
2017-11-25T07:45:52.116Z,29.40
2017-11-25T07:48:21.180Z,25.37
2017-11-25T07:50:49.475Z,49.37
2017-11-25T07:53:17.773Z,33.50
2017-11-25T07:55:46.092Z,47.93
2017-11-25T07:58:15.159Z,352.00
2017-11-25T08:00:43.452Z,181.63
2017-11-25T08:03:11.777Z,46.93
2017-11-25T08:05:40.840Z,87.50
2017-11-25T08:08:09.174Z,60.03
2017-11-25T08:10:38.290Z,27.53
2017-11-25T08:13:07.355Z,27.10
2017-11-25T08:15:35.688Z,23.67
2017-11-25T08:18:04.000Z,40.80
2017-11-25T08:20:32.319Z,19.93
2017-11-25T08:23:00.661Z,12.50
2017-11-25T08:25:28.996Z,10.93
2017-11-25T08:27:57.280Z,11.60
2017-11-25T08:30:25.573Z,29.07
2017-11-25T08:32:53.869Z,9.13
2017-11-25T08:35:22.188Z,12.53
2017-11-25T08:37:51.244Z,7.57
2017-11-25T08:40:19.556Z,8.20
2017-11-25T08:42:47.832Z,5.13
2017-11-25T08:45:16.105Z,4.63
2017-11-25T08:47:44.417Z,5.47
2017-11-25T08:50:12.707Z,5.93
2017-11-25T08:52:41.036Z,6.53
2017-11-25T08:55:10.092Z,4.07
2017-11-25T08:57:38.503Z,6.43
2017-11-25T09:00:06.815Z,9.20
2017-11-25T09:02:35.142Z,12.70
2017-11-25T09:05:03.462Z,7.87
2017-11-25T09:07:31.784Z,6.60
2017-11-25T09:10:00.065Z,4.63
2017-11-25T09:12:28.356Z,3.43
2017-11-25T09:14:56.668Z,5.50
2017-11-25T09:17:25.722Z,4.20
2017-11-25T09:19:54.022Z,4.03
2017-11-25T09:22:22.298Z,3.00
2017-11-25T09:24:50.574Z,5.83
2017-11-25T09:27:19.028Z,5.97
2017-11-25T09:29:48.080Z,7.10
2017-11-25T09:32:16.352Z,6.40
2017-11-25T09:34:44.665Z,4.90
2017-11-25T09:37:12.967Z,10.23
2017-11-25T09:39:41.272Z,4.53
2017-11-25T09:42:09.584Z,4.10
2017-11-25T09:44:37.889Z,3.83
2017-11-25T09:47:06.262Z,3.20
2017-11-25T09:49:35.353Z,3.50
2017-11-25T09:52:04.425Z,6.23
2017-11-25T09:54:32.702Z,4.13
2017-11-25T09:57:00.988Z,5.33
2017-11-25T09:59:29.301Z,6.17
2017-11-25T10:01:57.589Z,5.43
2017-11-25T10:04:25.893Z,23.50
2017-11-25T10:06:54.960Z,7.00
2017-11-25T10:09:23.266Z,11.23
2017-11-25T10:11:51.601Z,9.23
2017-11-25T10:14:20.657Z,13.33
2017-11-25T10:16:48.977Z,6.23
2017-11-25T10:19:17.269Z,5.80
2017-11-25T10:21:45.578Z,3.40
2017-11-25T10:24:14.620Z,2.37
2017-11-25T10:26:42.904Z,3.70
2017-11-25T10:29:11.235Z,4.70
2017-11-25T10:31:39.554Z,5.60
2017-11-25T10:34:07.897Z,53.40
2017-11-25T10:36:36.233Z,5.10
2017-11-25T10:39:05.287Z,4.87
2017-11-25T10:41:33.618Z,3.43
2017-11-25T10:44:02.710Z,3.90
2017-11-25T10:46:30.998Z,5.60
2017-11-25T10:48:59.281Z,4.83
2017-11-25T10:51:27.579Z,2.50
2017-11-25T10:53:55.892Z,4.53
2017-11-25T10:56:24.197Z,2.87
2017-11-25T10:58:52.473Z,4.97
2017-11-25T11:01:20.798Z,4.60
2017-11-25T11:03:49.119Z,4.50
2017-11-25T11:06:17.417Z,8.60
2017-11-25T11:08:45.704Z,5.20
2017-11-25T11:11:14.020Z,8.77
2017-11-25T11:13:43.121Z,9.10
2017-11-25T11:16:12.242Z,11.43
2017-11-25T11:18:40.531Z,10.53
2017-11-25T11:21:08.818Z,8.20
2017-11-25T11:23:37.133Z,10.47
2017-11-25T11:26:05.461Z,12.47
2017-11-25T11:28:33.777Z,9.80
2017-11-25T11:31:02.079Z,12.07
2017-11-25T11:33:30.379Z,84.40
2017-11-25T11:35:58.677Z,12.27
2017-11-25T11:38:26.972Z,8.37
2017-11-25T11:40:55.328Z,17.90
2017-11-25T11:43:23.626Z,17.07
2017-11-25T11:45:51.925Z,19.53
2017-11-25T11:48:20.215Z,14.70
2017-11-25T11:50:49.290Z,24.90
2017-11-25T11:53:18.382Z,22.30
2017-11-25T11:55:46.684Z,22.30
2017-11-25T11:58:15.772Z,27.20
2017-11-25T12:00:44.089Z,23.80
2017-11-25T12:03:12.399Z,29.50
2017-11-25T12:05:40.724Z,27.00
2017-11-25T12:08:09.045Z,23.53
2017-11-25T12:10:37.381Z,29.93
2017-11-25T12:13:05.700Z,22.67
2017-11-25T12:15:33.995Z,21.27
2017-11-25T12:18:03.127Z,19.53
2017-11-25T12:20:32.201Z,28.23
2017-11-25T12:23:00.545Z,18.77
2017-11-25T12:25:29.628Z,13.40
2017-11-25T12:27:58.686Z,23.03
2017-11-25T12:30:27.009Z,20.30
2017-11-25T12:32:55.296Z,17.77
2017-11-25T12:35:23.588Z,13.13
2017-11-25T12:37:51.945Z,18.00
2017-11-25T12:40:20.224Z,18.70
2017-11-25T12:42:48.515Z,0.60
2017-11-25T12:45:16.813Z,2.10
2017-11-25T12:47:45.106Z,1.23
2017-11-25T12:50:13.427Z,0.30
2017-11-25T12:52:42.477Z,19.77
2017-11-25T12:55:10.797Z,15.40
2017-11-25T12:57:39.094Z,12.87
2017-11-25T13:00:07.414Z,10.67
2017-11-25T13:02:35.765Z,13.33
2017-11-25T13:05:04.079Z,12.97
2017-11-25T13:07:32.387Z,8.57
2017-11-25T13:10:01.461Z,9.03
2017-11-25T13:12:29.784Z,8.83
2017-11-25T13:14:58.101Z,5.50
2017-11-25T13:17:26.417Z,10.40
2017-11-25T13:19:54.716Z,7.00
2017-11-25T13:22:23.002Z,15.80
2017-11-25T13:24:51.458Z,8.70
2017-11-25T13:27:19.825Z,8.27
2017-11-25T13:29:48.873Z,11.10
2017-11-25T13:32:17.167Z,12.90
2017-11-25T13:34:45.451Z,19.90
2017-11-25T13:37:13.746Z,33.47
2017-11-25T13:39:42.032Z,17.47
2017-11-25T13:42:10.370Z,20.83
2017-11-25T13:44:38.734Z,22.97
2017-11-25T13:47:07.826Z,20.67
2017-11-25T13:49:36.149Z,34.67
2017-11-25T13:52:05.268Z,21.90
2017-11-25T13:54:33.570Z,24.23
2017-11-25T13:57:01.906Z,17.30
2017-11-25T13:59:30.987Z,20.30
2017-11-25T14:01:59.288Z,18.03
2017-11-25T14:04:27.609Z,17.87
2017-11-25T14:06:55.924Z,17.93
2017-11-25T14:09:24.227Z,14.57
2017-11-25T14:11:54.197Z,19.90
2017-11-25T14:14:23.264Z,15.03
2017-11-25T14:16:51.561Z,17.43
2017-11-25T14:19:19.856Z,11.60
2017-11-25T14:21:48.143Z,17.10
2017-11-25T14:24:16.496Z,14.57
2017-11-25T14:26:45.560Z,12.67
2017-11-25T14:29:13.856Z,19.83
2017-11-25T14:31:42.172Z,16.10
2017-11-25T14:34:11.275Z,20.47
2017-11-25T14:36:40.498Z,12.83
2017-11-25T14:39:09.577Z,12.50
2017-11-25T14:41:37.952Z,16.03
2017-11-25T14:44:06.321Z,17.63
2017-11-25T14:46:34.640Z,12.60
2017-11-25T14:49:02.974Z,11.03
2017-11-25T14:51:31.273Z,12.37
2017-11-25T14:53:59.581Z,17.33
2017-11-25T14:56:27.962Z,19.47
2017-11-25T14:58:56.267Z,21.97
2017-11-25T15:01:24.605Z,18.77
2017-11-25T15:03:53.682Z,20.63
2017-11-25T15:06:22.031Z,18.77
2017-11-25T15:08:50.326Z,20.50
2017-11-25T15:11:18.616Z,19.30
2017-11-25T15:13:46.907Z,28.40
2017-11-25T15:16:15.199Z,25.80
2017-11-25T15:18:43.548Z,24.17
2017-11-25T15:21:12.635Z,25.80
2017-11-25T15:23:41.729Z,32.17
2017-11-25T15:26:10.046Z,30.90
2017-11-25T15:28:38.394Z,30.60
2017-11-25T15:31:06.743Z,26.87
2017-11-25T15:33:35.048Z,32.17
2017-11-25T15:36:03.412Z,27.77
2017-11-25T15:38:31.759Z,19.27
2017-11-25T15:41:00.050Z,35.97
2017-11-25T15:43:28.376Z,22.70
2017-11-25T15:45:57.480Z,26.47
2017-11-25T15:48:25.815Z,33.50
2017-11-25T15:50:54.112Z,27.40
2017-11-25T15:53:22.403Z,31.07
2017-11-25T15:55:50.699Z,27.37
2017-11-25T15:58:19.097Z,31.63
2017-11-25T16:00:47.454Z,29.20
2017-11-25T16:03:15.756Z,25.53
2017-11-25T16:05:44.085Z,27.90
2017-11-25T16:08:12.396Z,22.80
2017-11-25T16:10:41.472Z,30.57
2017-11-25T16:13:09.846Z,28.60
2017-11-25T16:15:38.160Z,30.30
2017-11-25T16:18:06.487Z,30.33
2017-11-25T16:20:34.865Z,27.20
2017-11-25T16:23:04.055Z,23.80
2017-11-25T16:25:32.358Z,29.00
2017-11-25T16:28:01.427Z,23.20
2017-11-25T16:30:29.728Z,28.23
2017-11-25T16:32:58.030Z,29.93
2017-11-25T16:35:26.350Z,29.57
2017-11-25T16:37:54.664Z,26.63
2017-11-25T16:40:22.971Z,26.70
2017-11-25T16:42:51.269Z,27.13
2017-11-25T16:45:19.573Z,22.10
2017-11-25T16:47:47.895Z,33.77
2017-11-25T16:50:16.220Z,25.53
2017-11-25T16:52:44.548Z,25.60
2017-11-25T16:55:13.628Z,29.67
2017-11-25T16:57:41.928Z,24.83
2017-11-25T17:00:10.229Z,25.37
2017-11-25T17:02:38.536Z,29.33
2017-11-25T17:05:07.667Z,31.80
2017-11-25T17:07:35.973Z,25.10
2017-11-25T17:10:04.290Z,27.90
2017-11-25T17:12:32.593Z,28.00
2017-11-25T17:15:00.901Z,19.80
2017-11-25T17:17:29.212Z,20.10
2017-11-25T17:19:57.552Z,36.50
2017-11-25T17:22:25.865Z,26.67
2017-11-25T17:24:54.941Z,31.80
2017-11-25T17:27:23.239Z,31.23
2017-11-25T17:29:52.329Z,30.83
2017-11-25T17:32:20.651Z,37.47
2017-11-25T17:34:49.731Z,33.30
2017-11-25T17:37:18.024Z,31.87
2017-11-25T17:39:46.311Z,30.40
2017-11-25T17:42:14.626Z,28.70
2017-11-25T17:44:43.032Z,28.27
2017-11-25T17:47:11.358Z,31.43
2017-11-25T17:49:39.681Z,32.43
2017-11-25T17:52:07.983Z,35.03
2017-11-25T17:54:36.372Z,32.90
2017-11-25T17:57:05.463Z,41.60
2017-11-25T17:59:33.766Z,29.70
2017-11-25T18:02:02.857Z,29.73
2017-11-25T18:04:31.152Z,25.70
2017-11-25T18:06:59.444Z,32.20
2017-11-25T18:09:27.770Z,41.57
2017-11-25T18:11:56.077Z,30.30
2017-11-25T18:14:24.376Z,36.93
2017-11-25T18:16:52.684Z,30.23
2017-11-25T18:19:20.973Z,35.73
2017-11-25T18:21:49.292Z,34.20
2017-11-25T18:24:18.366Z,32.33
2017-11-25T18:26:46.668Z,38.00
2017-11-25T18:29:14.990Z,37.87
2017-11-25T18:31:44.053Z,35.93
2017-11-25T18:34:12.382Z,34.50
2017-11-25T18:36:41.436Z,40.17
2017-11-25T18:39:09.737Z,37.10
2017-11-25T18:41:38.051Z,38.17
2017-11-25T18:44:07.281Z,39.43
2017-11-25T18:46:35.731Z,31.90
2017-11-25T18:49:04.035Z,38.50
2017-11-25T18:51:32.329Z,41.03
2017-11-25T18:54:00.669Z,55.37
2017-11-25T18:56:28.960Z,38.03
2017-11-25T18:58:57.303Z,36.50
2017-11-25T19:01:26.364Z,45.60
2017-11-25T19:03:54.663Z,41.77
2017-11-25T19:06:22.994Z,36.07
2017-11-25T19:08:52.061Z,41.53
2017-11-25T19:11:20.379Z,38.20
2017-11-25T19:13:48.700Z,36.80
2017-11-25T19:16:16.993Z,39.97
2017-11-25T19:18:45.297Z,39.40
2017-11-25T19:21:13.617Z,39.03
2017-11-25T19:23:41.979Z,36.30
2017-11-25T19:26:10.333Z,31.73
2017-11-25T19:28:38.651Z,30.07
2017-11-25T19:31:06.968Z,29.70
2017-11-25T19:33:35.263Z,26.57
2017-11-25T19:36:03.600Z,27.80
2017-11-25T19:38:31.940Z,36.90
2017-11-25T19:41:00.260Z,30.20
2017-11-25T19:43:29.328Z,23.77
2017-11-25T19:45:57.626Z,23.03
2017-11-25T19:48:26.178Z,26.83
2017-11-25T19:50:54.469Z,21.83
2017-11-25T19:53:22.764Z,19.57
2017-11-25T19:55:51.071Z,19.00
2017-11-25T19:58:19.370Z,26.23
2017-11-25T20:00:47.720Z,17.50
2017-11-25T20:03:16.061Z,22.53
2017-11-25T20:05:45.285Z,17.43
2017-11-25T20:08:13.596Z,18.50
2017-11-25T20:10:42.684Z,18.80
2017-11-25T20:13:11.000Z,15.20
2017-11-25T20:15:39.312Z,18.07
2017-11-25T20:18:07.663Z,17.17
2017-11-25T20:20:36.766Z,23.30
2017-11-25T20:23:05.884Z,17.33
2017-11-25T20:25:34.986Z,18.87
2017-11-25T20:28:03.405Z,22.00
2017-11-25T20:30:31.791Z,19.40
2017-11-25T20:33:00.166Z,22.03
2017-11-25T20:35:29.317Z,17.83
2017-11-25T20:37:57.708Z,24.73
2017-11-25T20:40:26.100Z,22.03
2017-11-25T20:42:54.482Z,19.67
2017-11-25T20:45:22.860Z,16.87
2017-11-25T20:47:51.230Z,19.57
2017-11-25T20:50:20.369Z,13.47
2017-11-25T20:52:48.764Z,18.00
2017-11-25T20:55:17.250Z,24.10
2017-11-25T20:57:45.604Z,27.50
2017-11-25T21:00:14.720Z,22.73
2017-11-25T21:02:43.807Z,31.30
2017-11-25T21:05:12.144Z,18.00
2017-11-25T21:07:40.499Z,17.40
2017-11-25T21:10:09.653Z,16.30
2017-11-25T21:12:37.976Z,21.00
2017-11-25T21:15:06.373Z,14.23
2017-11-25T21:17:34.756Z,10.87
2017-11-25T21:20:03.124Z,15.07
2017-11-25T21:22:31.517Z,10.73
2017-11-25T21:24:59.819Z,9.80
2017-11-25T21:27:28.312Z,13.17
2017-11-25T21:29:56.734Z,14.47
2017-11-25T21:32:25.090Z,14.60
2017-11-25T21:34:53.474Z,13.00
2017-11-25T21:37:21.822Z,10.37
2017-11-25T21:39:50.170Z,11.57
2017-11-25T21:42:18.533Z,8.30
2017-11-25T21:44:46.891Z,6.70
2017-11-25T21:47:15.256Z,7.83
2017-11-25T21:49:43.575Z,8.97
2017-11-25T21:52:11.913Z,9.07
2017-11-25T21:54:40.246Z,9.53
2017-11-25T21:57:09.388Z,11.80
2017-11-25T21:59:37.693Z,6.53
2017-11-25T22:02:06.200Z,15.43
2017-11-25T22:04:34.633Z,8.33
2017-11-25T22:07:03.701Z,8.63
2017-11-25T22:09:32.000Z,9.37
2017-11-25T22:12:00.317Z,17.03
2017-11-25T22:14:29.374Z,7.03
2017-11-25T22:16:57.797Z,6.20
2017-11-25T22:19:26.089Z,5.47
2017-11-25T22:21:54.376Z,13.13
2017-11-25T22:24:22.675Z,10.20
2017-11-25T22:26:51.820Z,4.90
2017-11-25T22:29:20.131Z,6.37
2017-11-25T22:31:48.558Z,11.97
2017-11-25T22:34:17.663Z,11.47
2017-11-25T22:36:46.824Z,8.50
2017-11-25T22:39:15.185Z,11.40
2017-11-25T22:41:43.573Z,8.27
2017-11-25T22:44:11.946Z,9.73
2017-11-25T22:46:41.047Z,7.73
2017-11-25T22:49:09.377Z,16.50
2017-11-25T22:51:37.680Z,17.13
2017-11-25T22:54:05.982Z,12.73
2017-11-25T22:56:34.290Z,10.23
2017-11-25T22:59:02.629Z,10.73
2017-11-25T23:01:30.950Z,15.90
2017-11-25T23:03:59.260Z,12.60
2017-11-25T23:06:27.560Z,12.30
2017-11-25T23:08:55.858Z,13.83
2017-11-25T23:11:24.934Z,24.77
2017-11-25T23:13:53.250Z,19.93
2017-11-25T23:16:21.685Z,21.20
2017-11-25T23:18:50.076Z,16.30
2017-11-25T23:21:18.376Z,13.40
2017-11-25T23:23:46.766Z,22.30
2017-11-25T23:26:15.085Z,19.90
2017-11-25T23:28:43.519Z,21.63
2017-11-25T23:31:11.817Z,16.17
2017-11-25T23:33:40.156Z,21.37
2017-11-25T23:36:08.457Z,16.77
2017-11-25T23:38:37.534Z,15.10
2017-11-25T23:41:05.924Z,17.17
2017-11-25T23:43:34.498Z,16.20
2017-11-25T23:46:02.810Z,22.03
2017-11-25T23:48:31.102Z,22.30
2017-11-25T23:50:59.411Z,17.33
2017-11-25T23:53:27.696Z,18.70
2017-11-25T23:55:56.025Z,20.40
2017-11-25T23:58:24.317Z,19.70
